METAR Formatted Surface Weather Observation
Issued by NWS

Home | Current Version | Previous Version | Text Only | Print | Product List | Glossary On
Versions: 1 2 3 4 5 6 7 8 9 10 11 12 13 14 15 16 17
000
SAUS41 KLWX 272107
MTRRYT
METAR KRYT 272053Z AUTO VRB04KT 10SM FEW041 M03/M14 A3042 RMK AO2
SLP322 T10331144 53012 $



USA.gov is the U.S. government's official web portal to all federal, state and local government web resources and services.